createdAt,value
2018-08-25T00:00:24.480Z,981.57
2018-08-25T00:02:17.301Z,981.59
2018-08-25T00:03:17.221Z,981.61
2018-08-25T00:05:10.014Z,981.60
2018-08-25T00:06:09.965Z,981.58
2018-08-25T00:08:02.785Z,981.64
2018-08-25T00:09:02.708Z,981.62
2018-08-25T00:10:55.498Z,981.61
2018-08-25T00:11:55.450Z,981.61
2018-08-25T00:13:48.272Z,981.61
2018-08-25T00:14:48.195Z,981.60
2018-08-25T00:16:40.981Z,981.58
2018-08-25T00:17:40.936Z,981.59
2018-08-25T00:19:33.758Z,981.61
2018-08-25T00:20:33.678Z,981.63
2018-08-25T00:22:26.476Z,981.58
2018-08-25T00:23:26.420Z,981.52
2018-08-25T00:25:19.242Z,981.52
2018-08-25T00:26:19.163Z,981.48
2018-08-25T00:28:11.951Z,981.53
2018-08-25T00:29:11.904Z,981.54
2018-08-25T00:31:04.725Z,981.51
2018-08-25T00:32:04.645Z,981.51
2018-08-25T00:33:57.435Z,981.44
2018-08-25T00:34:57.390Z,981.47
2018-08-25T00:36:50.210Z,981.42
2018-08-25T00:37:50.132Z,981.40
2018-08-25T00:39:42.921Z,981.36
2018-08-25T00:40:42.872Z,981.39
2018-08-25T00:42:35.696Z,981.41
2018-08-25T00:43:35.611Z,981.39
2018-08-25T00:45:28.401Z,981.41
2018-08-25T00:46:28.352Z,981.38
2018-08-25T00:48:21.174Z,981.41
2018-08-25T00:49:21.095Z,981.43
2018-08-25T00:51:13.886Z,981.46
2018-08-25T00:52:13.840Z,981.45
2018-08-25T00:54:06.660Z,981.42
2018-08-25T00:55:06.583Z,981.48
2018-08-25T00:56:59.372Z,981.46
2018-08-25T00:57:59.322Z,981.49
2018-08-25T00:59:52.144Z,981.49
2018-08-25T01:00:52.065Z,981.47
2018-08-25T01:02:44.852Z,981.50
2018-08-25T01:03:44.805Z,981.51
2018-08-25T01:05:37.627Z,981.51
2018-08-25T01:06:37.547Z,981.57
2018-08-25T01:08:30.338Z,981.59
2018-08-25T01:09:30.290Z,981.57
2018-08-25T01:11:23.110Z,981.57
2018-08-25T01:12:23.036Z,981.63
2018-08-25T01:14:15.822Z,981.58
2018-08-25T01:15:15.774Z,981.60
2018-08-25T01:17:08.592Z,981.62
2018-08-25T01:18:08.513Z,981.65
2018-08-25T01:20:01.306Z,981.64
2018-08-25T01:21:01.258Z,981.64
2018-08-25T01:22:54.082Z,981.63
2018-08-25T01:23:54.003Z,981.62
2018-08-25T01:25:46.797Z,981.63
2018-08-25T01:26:46.746Z,981.57
2018-08-25T01:28:39.565Z,981.52
2018-08-25T01:29:39.484Z,981.50
2018-08-25T01:31:32.277Z,981.48
2018-08-25T01:32:32.229Z,981.47
2018-08-25T01:34:25.048Z,981.48
2018-08-25T01:35:24.972Z,981.46
2018-08-25T01:37:17.761Z,981.47
2018-08-25T01:38:17.714Z,981.46
2018-08-25T01:40:10.535Z,981.43
2018-08-25T01:41:10.458Z,981.43
2018-08-25T01:43:03.245Z,981.35
2018-08-25T01:44:03.196Z,981.33
2018-08-25T01:45:56.016Z,981.36
2018-08-25T01:46:55.939Z,981.36
2018-08-25T01:48:48.731Z,981.35
2018-08-25T01:49:48.682Z,981.33
2018-08-25T01:51:41.514Z,981.36
2018-08-25T01:52:41.425Z,981.33
2018-08-25T01:54:34.216Z,981.35
2018-08-25T01:55:34.168Z,981.31
2018-08-25T01:57:26.990Z,981.29
2018-08-25T01:58:26.910Z,981.34
2018-08-25T02:00:19.702Z,981.34
2018-08-25T02:01:19.654Z,981.37
2018-08-25T02:03:12.475Z,981.38
2018-08-25T02:04:12.397Z,981.30
2018-08-25T02:06:05.188Z,981.26
2018-08-25T02:07:05.140Z,981.20
2018-08-25T02:08:57.968Z,981.12
2018-08-25T02:09:57.885Z,981.13
2018-08-25T02:11:50.674Z,981.09
2018-08-25T02:12:50.624Z,981.06
2018-08-25T02:14:43.449Z,981.05
2018-08-25T02:15:43.367Z,981.00
2018-08-25T02:17:36.159Z,981.06
2018-08-25T02:18:36.111Z,981.03
2018-08-25T02:20:28.930Z,981.01
2018-08-25T02:21:28.857Z,981.01
2018-08-25T02:23:21.644Z,980.98
2018-08-25T02:24:21.596Z,980.98
2018-08-25T02:26:14.421Z,981.00
2018-08-25T02:27:14.337Z,981.04
2018-08-25T02:29:07.132Z,981.06
2018-08-25T02:30:07.085Z,981.09
2018-08-25T02:31:59.910Z,981.08
2018-08-25T02:32:59.823Z,981.07
2018-08-25T02:34:52.615Z,980.96
2018-08-25T02:35:52.565Z,980.99
2018-08-25T02:37:45.386Z,980.91
2018-08-25T02:38:45.349Z,980.91
2018-08-25T02:40:38.098Z,980.95
2018-08-25T02:41:38.049Z,980.97
2018-08-25T02:43:30.874Z,980.98
2018-08-25T02:44:30.793Z,980.98
2018-08-25T02:46:23.585Z,981.02
2018-08-25T02:47:23.539Z,981.00
2018-08-25T02:49:16.355Z,980.99
2018-08-25T02:50:16.278Z,980.94
2018-08-25T02:52:09.069Z,980.91
2018-08-25T02:53:09.027Z,980.85
2018-08-25T02:55:01.842Z,980.91
2018-08-25T02:56:01.766Z,980.91
2018-08-25T02:57:54.556Z,980.95
2018-08-25T02:58:54.505Z,980.95
2018-08-25T03:00:47.338Z,980.98
2018-08-25T03:01:47.248Z,980.91
2018-08-25T03:03:40.039Z,980.85
2018-08-25T03:04:39.990Z,980.87
2018-08-25T03:06:32.810Z,980.88
2018-08-25T03:07:32.733Z,980.85
2018-08-25T03:09:25.536Z,980.78
2018-08-25T03:10:25.475Z,980.77
2018-08-25T03:12:18.300Z,980.78
2018-08-25T03:13:18.216Z,980.80
2018-08-25T03:15:11.007Z,980.88
2018-08-25T03:16:10.966Z,980.85
2018-08-25T03:18:03.778Z,980.81
2018-08-25T03:19:03.700Z,980.85
2018-08-25T03:20:56.493Z,980.87
2018-08-25T03:21:56.444Z,980.86
2018-08-25T03:23:49.268Z,980.90
2018-08-25T03:24:49.185Z,980.92
2018-08-25T03:26:41.974Z,980.89
2018-08-25T03:27:41.930Z,980.87
2018-08-25T03:29:34.748Z,980.88
2018-08-25T03:30:34.670Z,980.83
2018-08-25T03:32:27.458Z,980.87
2018-08-25T03:33:27.410Z,980.86
2018-08-25T03:35:20.228Z,980.86
2018-08-25T03:36:20.151Z,980.86
2018-08-25T03:38:12.941Z,980.77
2018-08-25T03:39:12.893Z,980.77
2018-08-25T03:41:05.712Z,980.76
2018-08-25T03:42:05.637Z,980.76
2018-08-25T03:43:58.425Z,980.73
2018-08-25T03:44:58.375Z,980.73
2018-08-25T03:46:51.209Z,980.75
2018-08-25T03:47:51.118Z,980.72
2018-08-25T03:49:43.908Z,980.75
2018-08-25T03:50:43.858Z,980.74
2018-08-25T03:52:36.687Z,980.70
2018-08-25T03:53:36.602Z,980.74
2018-08-25T03:55:29.481Z,980.68
2018-08-25T03:56:29.343Z,980.67
2018-08-25T03:58:22.172Z,980.65
2018-08-25T03:59:22.084Z,980.67
2018-08-25T04:01:14.876Z,980.69
2018-08-25T04:02:14.828Z,980.69
2018-08-25T04:04:07.655Z,980.70
2018-08-25T04:05:07.580Z,980.68
2018-08-25T04:07:00.364Z,980.71
2018-08-25T04:08:00.315Z,980.69
2018-08-25T04:09:53.152Z,980.73
2018-08-25T04:10:53.057Z,980.69
2018-08-25T04:12:45.850Z,980.63
2018-08-25T04:13:45.800Z,980.68
2018-08-25T04:15:38.633Z,980.67
2018-08-25T04:16:38.540Z,980.63
2018-08-25T04:18:31.329Z,980.61
2018-08-25T04:19:31.281Z,980.61
2018-08-25T04:21:24.106Z,980.62
2018-08-25T04:22:24.092Z,980.63
2018-08-25T04:24:16.810Z,980.58
2018-08-25T04:25:16.762Z,980.56
2018-08-25T04:27:09.582Z,980.55
2018-08-25T04:28:09.505Z,980.55
2018-08-25T04:30:02.296Z,980.54
2018-08-25T04:31:02.250Z,980.60
2018-08-25T04:32:55.069Z,980.58
2018-08-25T04:33:54.991Z,980.58
2018-08-25T04:35:47.784Z,980.50
2018-08-25T04:36:47.742Z,980.49
2018-08-25T04:38:40.556Z,980.45
2018-08-25T04:39:40.478Z,980.45
2018-08-25T04:41:33.268Z,980.46
2018-08-25T04:42:33.217Z,980.43
2018-08-25T04:44:26.039Z,980.42
2018-08-25T04:45:25.961Z,980.44
2018-08-25T04:47:18.756Z,980.47
2018-08-25T04:48:18.707Z,980.42
2018-08-25T04:50:11.529Z,980.43
2018-08-25T04:51:11.450Z,980.44
2018-08-25T04:53:04.245Z,980.42
2018-08-25T04:54:04.192Z,980.45
2018-08-25T04:55:57.019Z,980.50
2018-08-25T04:56:56.937Z,980.49
2018-08-25T04:58:49.727Z,980.45
2018-08-25T04:59:49.680Z,980.43
2018-08-25T05:01:42.544Z,980.43
2018-08-25T05:02:42.420Z,980.49
2018-08-25T05:04:35.212Z,980.46
2018-08-25T05:05:35.164Z,980.46
2018-08-25T05:07:28.033Z,980.45
2018-08-25T05:08:27.903Z,980.41
2018-08-25T05:10:20.691Z,980.43
2018-08-25T05:11:20.644Z,980.44
2018-08-25T05:13:13.465Z,980.43
2018-08-25T05:14:13.392Z,980.43
2018-08-25T05:16:06.180Z,980.41
2018-08-25T05:17:06.132Z,980.42
2018-08-25T05:18:58.950Z,980.43
2018-08-25T05:19:58.872Z,980.42
2018-08-25T05:21:51.685Z,980.44
2018-08-25T05:22:51.617Z,980.39
2018-08-25T05:24:44.442Z,980.36
2018-08-25T05:25:44.364Z,980.34
2018-08-25T05:27:37.153Z,980.36
2018-08-25T05:28:37.105Z,980.38
2018-08-25T05:30:29.960Z,980.30
2018-08-25T05:31:29.881Z,980.33
2018-08-25T05:33:22.672Z,980.29
2018-08-25T05:34:22.626Z,980.34
2018-08-25T05:36:15.444Z,980.31
2018-08-25T05:37:15.367Z,980.32
2018-08-25T05:39:08.158Z,980.33
2018-08-25T05:40:08.111Z,980.35
2018-08-25T05:42:00.933Z,980.33
2018-08-25T05:43:00.856Z,980.32
2018-08-25T05:44:53.647Z,980.31
2018-08-25T05:45:53.599Z,980.32
2018-08-25T05:47:46.419Z,980.31
2018-08-25T05:48:46.341Z,980.26
2018-08-25T05:50:39.132Z,980.27
2018-08-25T05:51:39.081Z,980.32
2018-08-25T05:53:31.905Z,980.30
2018-08-25T05:54:31.826Z,980.34
2018-08-25T05:56:24.614Z,980.34
2018-08-25T05:57:24.569Z,980.34
2018-08-25T05:59:17.386Z,980.30
2018-08-25T06:00:17.310Z,980.27
2018-08-25T06:02:10.098Z,980.28
2018-08-25T06:03:10.050Z,980.31
2018-08-25T06:05:02.872Z,980.29
2018-08-25T06:06:02.792Z,980.30
2018-08-25T06:07:55.582Z,980.29
2018-08-25T06:08:55.535Z,980.32
2018-08-25T06:10:48.354Z,980.30
2018-08-25T06:11:48.274Z,980.25
2018-08-25T06:13:41.066Z,980.24
2018-08-25T06:14:41.019Z,980.26
2018-08-25T06:16:33.841Z,980.28
2018-08-25T06:17:33.818Z,980.30
2018-08-25T06:19:26.553Z,980.25
2018-08-25T06:20:26.503Z,980.25
2018-08-25T06:22:19.326Z,980.20
2018-08-25T06:23:19.247Z,980.26
2018-08-25T06:25:12.036Z,980.24
2018-08-25T06:26:11.989Z,980.23
2018-08-25T06:28:04.808Z,980.24
2018-08-25T06:29:04.732Z,980.22
2018-08-25T06:30:57.523Z,980.20
2018-08-25T06:31:57.473Z,980.22
2018-08-25T06:33:50.292Z,980.21
2018-08-25T06:34:50.214Z,980.21
2018-08-25T06:36:43.110Z,980.21
2018-08-25T06:37:42.959Z,980.17
2018-08-25T06:39:35.780Z,980.16
2018-08-25T06:40:35.700Z,980.22
2018-08-25T06:42:28.506Z,980.18
2018-08-25T06:43:28.453Z,980.29
2018-08-25T06:45:21.263Z,980.21
2018-08-25T06:46:21.185Z,980.21
2018-08-25T06:48:13.977Z,980.23
2018-08-25T06:49:13.928Z,980.25
2018-08-25T06:51:06.760Z,980.24
2018-08-25T06:52:06.671Z,980.28
2018-08-25T06:53:59.473Z,980.24
2018-08-25T06:54:59.424Z,980.21
2018-08-25T06:56:52.246Z,980.27
2018-08-25T06:57:52.166Z,980.23
2018-08-25T06:59:44.969Z,980.29
2018-08-25T07:00:44.910Z,980.25
2018-08-25T07:02:37.728Z,980.29
2018-08-25T07:03:37.650Z,980.29
2018-08-25T07:05:30.439Z,980.28
2018-08-25T07:06:30.391Z,980.27
2018-08-25T07:08:23.211Z,980.26
2018-08-25T07:09:23.130Z,980.30
2018-08-25T07:11:15.922Z,980.26
2018-08-25T07:12:15.878Z,980.30
2018-08-25T07:14:08.697Z,980.29
2018-08-25T07:15:08.619Z,980.34
2018-08-25T07:17:01.411Z,980.34
2018-08-25T07:18:01.362Z,980.31
2018-08-25T07:19:54.198Z,980.35
2018-08-25T07:20:54.106Z,980.34
2018-08-25T07:22:46.895Z,980.34
2018-08-25T07:23:46.847Z,980.34
2018-08-25T07:25:39.706Z,980.35
2018-08-25T07:26:39.591Z,980.37
2018-08-25T07:28:32.384Z,980.43
2018-08-25T07:29:32.335Z,980.43
2018-08-25T07:31:25.158Z,980.42
2018-08-25T07:32:25.087Z,980.46
2018-08-25T07:34:17.870Z,980.54
2018-08-25T07:35:17.821Z,980.52
2018-08-25T07:37:10.642Z,980.55
2018-08-25T07:38:10.572Z,980.60
2018-08-25T07:40:03.357Z,980.61
2018-08-25T07:41:03.307Z,980.61
2018-08-25T07:42:56.132Z,980.66
2018-08-25T07:43:56.052Z,980.63
2018-08-25T07:45:48.843Z,980.63
2018-08-25T07:46:48.799Z,980.63
2018-08-25T07:48:41.708Z,980.64
2018-08-25T07:49:41.640Z,980.64
2018-08-25T07:51:34.328Z,980.70
2018-08-25T07:52:34.285Z,980.67
2018-08-25T07:54:27.103Z,980.70
2018-08-25T07:55:27.025Z,980.68
2018-08-25T07:57:19.814Z,980.66
2018-08-25T07:58:19.790Z,980.67
2018-08-25T08:00:12.585Z,980.68
2018-08-25T08:01:12.504Z,980.68
2018-08-25T08:03:05.293Z,980.69
2018-08-25T08:04:05.244Z,980.68
2018-08-25T08:05:58.067Z,980.69
2018-08-25T08:06:57.987Z,980.71
2018-08-25T08:08:50.776Z,980.69
2018-08-25T08:09:50.727Z,980.70
2018-08-25T08:11:43.589Z,980.74
2018-08-25T08:12:43.467Z,980.77
2018-08-25T08:14:36.259Z,980.78
2018-08-25T08:15:36.211Z,980.85
2018-08-25T08:17:29.034Z,980.82
2018-08-25T08:18:28.954Z,980.79
2018-08-25T08:20:21.745Z,980.76
2018-08-25T08:21:21.698Z,980.77
2018-08-25T08:23:14.520Z,980.81
2018-08-25T08:24:14.441Z,980.81
2018-08-25T08:26:07.234Z,980.76
2018-08-25T08:27:07.188Z,980.79
2018-08-25T08:29:00.007Z,980.74
2018-08-25T08:29:59.929Z,980.73
2018-08-25T08:31:52.726Z,980.73
2018-08-25T08:32:52.708Z,980.77
2018-08-25T08:34:45.500Z,980.77
2018-08-25T08:35:45.424Z,980.74
2018-08-25T08:37:38.212Z,980.79
2018-08-25T08:38:38.165Z,980.80
2018-08-25T08:40:30.986Z,980.84
2018-08-25T08:41:30.907Z,980.85
2018-08-25T08:43:23.699Z,980.79
2018-08-25T08:44:23.650Z,980.82
2018-08-25T08:46:16.471Z,980.88
2018-08-25T08:47:16.408Z,980.93
2018-08-25T08:49:09.183Z,980.94
2018-08-25T08:50:09.135Z,980.92
2018-08-25T08:52:01.958Z,980.93
2018-08-25T08:53:01.879Z,980.94
2018-08-25T08:54:54.671Z,980.99
2018-08-25T08:55:54.623Z,980.97
2018-08-25T08:57:47.447Z,980.97
2018-08-25T08:58:47.367Z,981.01
2018-08-25T09:00:40.155Z,981.05
2018-08-25T09:01:40.106Z,981.00
2018-08-25T09:03:32.998Z,981.02
2018-08-25T09:04:32.849Z,980.99
2018-08-25T09:06:25.644Z,980.95
2018-08-25T09:07:25.638Z,980.98
2018-08-25T09:09:18.418Z,980.97
2018-08-25T09:10:18.391Z,980.94
2018-08-25T09:12:11.131Z,980.96
2018-08-25T09:13:11.136Z,980.93
2018-08-25T09:15:03.903Z,980.96
2018-08-25T09:16:03.828Z,980.94
2018-08-25T09:17:56.624Z,980.94
2018-08-25T09:18:56.569Z,980.93
2018-08-25T09:20:49.388Z,980.92
2018-08-25T09:21:49.310Z,980.95
2018-08-25T09:23:42.103Z,980.89
2018-08-25T09:24:42.052Z,980.91
2018-08-25T09:26:34.869Z,980.85
2018-08-25T09:27:34.862Z,980.88
2018-08-25T09:29:27.585Z,980.90
2018-08-25T09:30:27.535Z,980.89
2018-08-25T09:32:20.357Z,980.92
2018-08-25T09:33:20.281Z,980.85
2018-08-25T09:35:13.069Z,980.91
2018-08-25T09:36:13.036Z,980.92
2018-08-25T09:38:05.843Z,980.99
2018-08-25T09:39:05.761Z,980.99
2018-08-25T09:40:58.552Z,980.96
2018-08-25T09:41:58.504Z,980.91
2018-08-25T09:43:51.333Z,980.91
2018-08-25T09:44:51.247Z,980.96
2018-08-25T09:46:44.049Z,981.00
2018-08-25T09:47:43.995Z,981.02
2018-08-25T09:49:36.814Z,981.04
2018-08-25T09:50:36.732Z,981.05
2018-08-25T09:52:29.521Z,981.08
2018-08-25T09:53:29.531Z,981.10
2018-08-25T09:55:22.300Z,981.12
2018-08-25T09:56:22.215Z,981.06
2018-08-25T09:58:15.005Z,981.02
2018-08-25T09:59:14.956Z,981.02
2018-08-25T10:01:07.780Z,981.03
2018-08-25T10:02:07.695Z,981.07
2018-08-25T10:04:00.487Z,981.04
2018-08-25T10:05:00.437Z,981.08
2018-08-25T10:06:53.263Z,981.10
2018-08-25T10:07:53.175Z,981.14
2018-08-25T10:09:45.967Z,981.13
2018-08-25T10:10:45.968Z,981.11
2018-08-25T10:12:38.741Z,981.15
2018-08-25T10:13:38.661Z,981.15
2018-08-25T10:15:31.455Z,981.11
2018-08-25T10:16:31.450Z,981.17
2018-08-25T10:18:24.236Z,981.18
2018-08-25T10:19:24.145Z,981.19
2018-08-25T10:21:16.936Z,981.18
2018-08-25T10:22:16.887Z,981.22
2018-08-25T10:24:09.709Z,981.27
2018-08-25T10:25:09.630Z,981.23
2018-08-25T10:27:02.419Z,981.29
2018-08-25T10:28:02.378Z,981.24
2018-08-25T10:29:55.188Z,981.26
2018-08-25T10:30:55.110Z,981.26
2018-08-25T10:32:47.930Z,981.25
2018-08-25T10:33:47.849Z,981.23
2018-08-25T10:35:40.680Z,981.28
2018-08-25T10:36:40.589Z,981.24
2018-08-25T10:38:33.383Z,981.32
2018-08-25T10:39:33.328Z,981.28
2018-08-25T10:41:26.156Z,981.31
2018-08-25T10:42:26.070Z,981.27
2018-08-25T10:44:18.861Z,981.29
2018-08-25T10:45:18.812Z,981.31
2018-08-25T10:47:11.633Z,981.30
2018-08-25T10:48:11.667Z,981.32
2018-08-25T10:50:04.339Z,981.32
2018-08-25T10:51:04.290Z,981.30
2018-08-25T10:52:57.108Z,981.30
2018-08-25T10:53:57.044Z,981.31
2018-08-25T10:55:49.820Z,981.31
2018-08-25T10:56:49.770Z,981.27
2018-08-25T10:58:42.588Z,981.26
2018-08-25T10:59:42.510Z,981.24
2018-08-25T11:01:35.300Z,981.27
2018-08-25T11:02:35.250Z,981.27
2018-08-25T11:04:28.072Z,981.28
2018-08-25T11:05:27.992Z,981.27
2018-08-25T11:07:20.781Z,981.23
2018-08-25T11:08:20.733Z,981.22
2018-08-25T11:10:13.553Z,981.26
2018-08-25T11:11:13.472Z,981.30
2018-08-25T11:13:06.259Z,981.33
2018-08-25T11:14:06.214Z,981.33
2018-08-25T11:15:59.028Z,981.36
2018-08-25T11:16:58.948Z,981.34
2018-08-25T11:18:51.738Z,981.35
2018-08-25T11:19:51.692Z,981.30
2018-08-25T11:21:44.506Z,981.37
2018-08-25T11:22:44.427Z,981.38
2018-08-25T11:24:37.220Z,981.37
2018-08-25T11:25:37.169Z,981.39
2018-08-25T11:27:29.999Z,981.39
2018-08-25T11:28:29.905Z,981.41
2018-08-25T11:30:22.691Z,981.37
2018-08-25T11:31:22.642Z,981.39
2018-08-25T11:33:15.473Z,981.37
2018-08-25T11:34:15.383Z,981.38
2018-08-25T11:36:08.168Z,981.42
2018-08-25T11:37:08.130Z,981.43
2018-08-25T11:39:00.938Z,981.45
2018-08-25T11:40:00.861Z,981.45
2018-08-25T11:41:53.653Z,981.43
2018-08-25T11:42:53.598Z,981.45
2018-08-25T11:44:46.424Z,981.40
2018-08-25T11:45:46.337Z,981.41
2018-08-25T11:47:39.128Z,981.43
2018-08-25T11:48:39.077Z,981.38
2018-08-25T11:50:31.898Z,981.42
2018-08-25T11:51:31.817Z,981.39
2018-08-25T11:53:24.604Z,981.35
2018-08-25T11:54:24.556Z,981.35
2018-08-25T11:56:17.376Z,981.31
2018-08-25T11:57:17.296Z,981.33
2018-08-25T11:59:10.091Z,981.35
2018-08-25T12:00:10.049Z,981.38
2018-08-25T12:02:02.863Z,981.38
2018-08-25T12:03:03.834Z,981.38
2018-08-25T12:04:55.559Z,981.28
2018-08-25T12:05:55.510Z,981.34
2018-08-25T12:07:48.329Z,981.39
2018-08-25T12:08:48.250Z,981.39
2018-08-25T12:10:41.039Z,981.35
2018-08-25T12:11:40.989Z,981.36
2018-08-25T12:13:33.821Z,981.32
2018-08-25T12:14:33.727Z,981.32
2018-08-25T12:16:26.556Z,981.30
2018-08-25T12:17:26.461Z,981.35
2018-08-25T12:19:19.282Z,981.32
2018-08-25T12:20:19.201Z,981.37
2018-08-25T12:22:12.609Z,981.32
2018-08-25T12:23:11.941Z,981.34
2018-08-25T12:25:04.761Z,981.33
2018-08-25T12:26:04.680Z,981.25
2018-08-25T12:27:57.470Z,981.28
2018-08-25T12:28:57.419Z,981.27
2018-08-25T12:30:50.232Z,981.39
2018-08-25T12:31:50.150Z,981.39
2018-08-25T12:33:42.937Z,981.33
2018-08-25T12:34:42.885Z,981.30
2018-08-25T12:36:35.712Z,981.27
2018-08-25T12:37:35.626Z,981.29
2018-08-25T12:39:28.488Z,981.21
2018-08-25T12:40:28.386Z,981.21
2018-08-25T12:42:21.195Z,981.23
2018-08-25T12:43:21.168Z,981.20
2018-08-25T12:45:13.969Z,981.22
2018-08-25T12:46:13.883Z,981.22
2018-08-25T12:48:06.701Z,981.20
2018-08-25T12:49:06.620Z,981.18
2018-08-25T12:50:59.402Z,981.12
2018-08-25T12:51:59.352Z,981.14
2018-08-25T12:53:52.173Z,981.16
2018-08-25T12:54:52.090Z,981.17
2018-08-25T12:56:44.875Z,981.18
2018-08-25T12:57:44.827Z,981.18
2018-08-25T12:59:37.662Z,981.18
2018-08-25T13:00:37.565Z,981.14
2018-08-25T13:02:30.354Z,981.14
2018-08-25T13:03:30.304Z,981.11
2018-08-25T13:05:23.124Z,981.19
2018-08-25T13:06:23.043Z,981.18
2018-08-25T13:08:15.827Z,981.18
2018-08-25T13:09:15.777Z,981.27
2018-08-25T13:11:08.596Z,981.22
2018-08-25T13:12:08.512Z,981.24
2018-08-25T13:14:01.300Z,981.26
2018-08-25T13:15:01.252Z,981.23
2018-08-25T13:16:54.068Z,981.18
2018-08-25T13:17:53.985Z,981.19
2018-08-25T13:19:46.774Z,981.16
2018-08-25T13:20:46.723Z,981.14
2018-08-25T13:22:39.542Z,981.15
2018-08-25T13:23:39.460Z,981.12
2018-08-25T13:25:32.246Z,981.12
2018-08-25T13:26:32.196Z,981.08
2018-08-25T13:28:25.020Z,981.12
2018-08-25T13:29:24.937Z,981.10
2018-08-25T13:31:17.761Z,981.11
2018-08-25T13:32:17.672Z,981.09
2018-08-25T13:34:10.508Z,981.11
2018-08-25T13:35:10.411Z,981.06
2018-08-25T13:37:03.195Z,981.05
2018-08-25T13:38:03.183Z,981.06
2018-08-25T13:39:55.989Z,981.07
2018-08-25T13:40:55.886Z,981.04
2018-08-25T13:42:48.674Z,981.09
2018-08-25T13:43:48.626Z,981.05
2018-08-25T13:45:41.448Z,981.00
2018-08-25T13:46:41.367Z,980.96
2018-08-25T13:48:34.151Z,980.94
2018-08-25T13:49:34.101Z,980.95
2018-08-25T13:51:26.921Z,980.98
2018-08-25T13:52:26.877Z,981.00
2018-08-25T13:54:19.630Z,981.03
2018-08-25T13:55:19.581Z,981.04
2018-08-25T13:57:12.403Z,981.08
2018-08-25T13:58:12.360Z,981.10
2018-08-25T14:00:05.108Z,981.11
2018-08-25T14:01:05.058Z,981.12
2018-08-25T14:02:57.886Z,981.13
2018-08-25T14:03:57.796Z,981.11
2018-08-25T14:05:50.587Z,981.13
2018-08-25T14:06:50.536Z,981.19
2018-08-25T14:08:43.356Z,981.23
2018-08-25T14:09:43.275Z,981.27
2018-08-25T14:11:36.061Z,981.15
2018-08-25T14:12:36.011Z,981.21
2018-08-25T14:14:28.831Z,981.20
2018-08-25T14:15:28.750Z,981.30
2018-08-25T14:17:21.540Z,981.28
2018-08-25T14:18:21.490Z,981.34
2018-08-25T14:20:14.313Z,981.22
2018-08-25T14:21:14.229Z,981.17
2018-08-25T14:23:07.018Z,981.15
2018-08-25T14:24:06.965Z,981.14
2018-08-25T14:25:59.787Z,981.14
2018-08-25T14:26:59.705Z,981.08
2018-08-25T14:28:52.527Z,981.05
2018-08-25T14:29:52.441Z,981.05
2018-08-25T14:31:45.261Z,981.07
2018-08-25T14:32:45.178Z,981.07
2018-08-25T14:34:37.967Z,981.09
2018-08-25T14:35:37.919Z,981.07
2018-08-25T14:37:30.738Z,981.09
2018-08-25T14:38:30.658Z,981.05
2018-08-25T14:40:23.447Z,981.04
2018-08-25T14:41:23.397Z,981.04
2018-08-25T14:43:16.218Z,981.01
2018-08-25T14:44:16.135Z,981.05
2018-08-25T14:46:08.923Z,981.06
2018-08-25T14:47:08.894Z,981.03
2018-08-25T14:49:01.704Z,981.03
2018-08-25T14:50:01.612Z,981.01
2018-08-25T14:51:54.394Z,980.95
2018-08-25T14:52:54.344Z,980.98
2018-08-25T14:54:47.163Z,980.96
2018-08-25T14:55:47.086Z,980.96
2018-08-25T14:57:39.869Z,980.94
2018-08-25T14:58:39.818Z,981.00
2018-08-25T15:00:32.739Z,981.01
2018-08-25T15:01:32.558Z,980.96
2018-08-25T15:03:25.397Z,980.91
2018-08-25T15:04:25.296Z,980.91
2018-08-25T15:06:18.113Z,980.92
2018-08-25T15:07:18.032Z,980.94
2018-08-25T15:09:10.821Z,980.90
2018-08-25T15:10:10.771Z,980.90
2018-08-25T15:12:03.593Z,980.94
2018-08-25T15:13:03.507Z,980.93
2018-08-25T15:14:56.296Z,980.92
2018-08-25T15:15:56.246Z,980.94
2018-08-25T15:17:49.066Z,980.91
2018-08-25T15:18:49.043Z,980.94
2018-08-25T15:20:41.773Z,980.92
2018-08-25T15:21:41.723Z,980.94
2018-08-25T15:23:34.543Z,980.89
2018-08-25T15:24:34.460Z,980.88
2018-08-25T15:26:27.251Z,980.89
2018-08-25T15:27:27.291Z,980.93
2018-08-25T15:29:20.025Z,980.85
2018-08-25T15:30:19.936Z,980.84
2018-08-25T15:32:12.724Z,980.86
2018-08-25T15:33:12.675Z,980.85
2018-08-25T15:35:05.498Z,980.85
2018-08-25T15:36:05.411Z,980.88
2018-08-25T15:37:58.200Z,980.89
2018-08-25T15:38:58.153Z,980.93
2018-08-25T15:40:50.967Z,980.91
2018-08-25T15:41:50.889Z,980.94
2018-08-25T15:43:43.673Z,980.97
2018-08-25T15:44:43.623Z,980.97
2018-08-25T15:46:36.451Z,980.98
2018-08-25T15:47:36.360Z,980.98
2018-08-25T15:49:29.147Z,980.92
2018-08-25T15:50:29.099Z,980.95
2018-08-25T15:52:21.923Z,980.96
2018-08-25T15:53:21.838Z,980.91
2018-08-25T15:55:14.670Z,980.95
2018-08-25T15:56:14.574Z,980.96
2018-08-25T15:58:07.394Z,980.98
2018-08-25T15:59:07.313Z,981.01
2018-08-25T16:01:00.099Z,981.03
2018-08-25T16:02:00.049Z,981.02
2018-08-25T16:03:52.873Z,981.05
2018-08-25T16:04:52.787Z,981.02
2018-08-25T16:06:45.574Z,981.05
2018-08-25T16:07:45.523Z,981.05
2018-08-25T16:09:38.341Z,981.06
2018-08-25T16:10:38.259Z,981.06
2018-08-25T16:12:31.220Z,981.09
2018-08-25T16:13:30.999Z,981.09
2018-08-25T16:15:23.819Z,981.11
2018-08-25T16:16:23.737Z,981.09
2018-08-25T16:18:16.528Z,981.09
2018-08-25T16:19:16.507Z,981.13
2018-08-25T16:21:09.311Z,981.13
2018-08-25T16:22:09.220Z,981.16
2018-08-25T16:24:02.008Z,981.15
2018-08-25T16:25:01.957Z,981.17
2018-08-25T16:26:54.832Z,981.15
2018-08-25T16:27:54.697Z,981.14
2018-08-25T16:29:47.485Z,981.13
2018-08-25T16:30:47.437Z,981.16
2018-08-25T16:32:40.255Z,981.12
2018-08-25T16:33:40.209Z,981.12
2018-08-25T16:35:32.966Z,981.08
2018-08-25T16:36:32.911Z,981.06
2018-08-25T16:38:25.731Z,981.06
2018-08-25T16:39:25.709Z,981.14
2018-08-25T16:41:18.438Z,981.08
2018-08-25T16:42:18.390Z,981.11
2018-08-25T16:44:11.210Z,981.09
2018-08-25T16:45:11.128Z,981.08
2018-08-25T16:47:03.915Z,981.06
2018-08-25T16:48:03.864Z,981.06
2018-08-25T16:49:56.686Z,981.06
2018-08-25T16:50:56.603Z,981.08
2018-08-25T16:52:49.391Z,981.11
2018-08-25T16:53:49.340Z,981.09
2018-08-25T16:55:42.204Z,981.11
2018-08-25T16:56:42.077Z,981.09
2018-08-25T16:58:34.863Z,981.10
2018-08-25T16:59:34.812Z,981.12
2018-08-25T17:01:27.643Z,981.15
2018-08-25T17:02:27.550Z,981.17
2018-08-25T17:04:20.341Z,981.15
2018-08-25T17:05:20.292Z,981.18
2018-08-25T17:07:13.109Z,981.13
2018-08-25T17:08:13.029Z,981.16
2018-08-25T17:10:05.818Z,981.18
2018-08-25T17:11:05.771Z,981.16
2018-08-25T17:12:58.592Z,981.11
2018-08-25T17:13:58.508Z,981.16
2018-08-25T17:15:51.297Z,981.15
2018-08-25T17:16:51.246Z,981.18
2018-08-25T17:18:44.068Z,981.21
2018-08-25T17:19:43.988Z,981.23
2018-08-25T17:21:36.775Z,981.19
2018-08-25T17:22:36.725Z,981.18
2018-08-25T17:24:29.547Z,981.21
2018-08-25T17:25:29.465Z,981.18
2018-08-25T17:27:22.251Z,981.21
2018-08-25T17:28:22.203Z,981.22
2018-08-25T17:30:15.021Z,981.24
2018-08-25T17:31:14.940Z,981.25
2018-08-25T17:33:07.760Z,981.28
2018-08-25T17:34:07.681Z,981.29
2018-08-25T17:36:00.503Z,981.31
2018-08-25T17:37:00.422Z,981.32
2018-08-25T17:38:53.211Z,981.28
2018-08-25T17:39:53.160Z,981.28
2018-08-25T17:41:45.979Z,981.28
2018-08-25T17:42:45.899Z,981.29
2018-08-25T17:44:38.687Z,981.26
2018-08-25T17:45:38.637Z,981.31
2018-08-25T17:47:31.456Z,981.30
2018-08-25T17:48:31.373Z,981.34
2018-08-25T17:50:24.163Z,981.36
2018-08-25T17:51:24.113Z,981.34
2018-08-25T17:53:16.931Z,981.33
2018-08-25T17:54:16.849Z,981.39
2018-08-25T17:56:09.638Z,981.38
2018-08-25T17:57:09.658Z,981.37